Terminal Aerodrome Forecast
Issued by NWS

Home | Current Version | Previous Version | Text Only | Print | Product List | Glossary On
Versions: 1 2 3 4 5 6 7 8 9 10 11 12 13 14 15 16 17 18 19 20 21 22 23 24
923
FTUS43 KTOP 221726
TAFFOE
TAF
KFOE 221726Z 2218/2318 08006KT 6SM BR OVC005
     FM221930 10005KT 3SM -FZRA OVC004
     FM222300 10006KT 3SM -RA OVC004
     FM230000 VRB03KT 2SM -DZ OVC003
     FM230500 31004KT 2SM BR OVC004
     FM231500 31004KT 6SM BR SCT002 BKN010=

USA.gov is the U.S. government's official web portal to all federal, state and local government web resources and services.